Time;durP1;ratioP1;P1;durP2;ratioP2;P2;SDS_P1;SDS_P2;PMS_P1;PMS_P2;Temp;Humidity;BMP_temperature;BMP_pressure;BME280_temperature;BME280_humidity;BME280_pressure;Samples;Min_cycle;Max_cycle;Signal;HPM_P1;HPM_P2
2022/01/14 00:01:59;;;;;;;28.33;16.02;;;8.60;83.30;;;;;;6157728;22;88487;-66
2022/01/14 00:04:26;;;;;;;27.30;15.07;;;8.50;83.00;;;;;;6157887;22;89258;-66
2022/01/14 00:06:54;;;;;;;21.42;13.75;;;8.50;83.20;;;;;;6157513;22;88815;-66
2022/01/14 00:09:20;;;;;;;28.88;13.98;;;8.50;83.10;;;;;;6157684;22;88416;-66
2022/01/14 00:11:53;;;;;;;27.77;15.95;;;8.50;82.90;;;;;;6157560;22;88432;-66
2022/01/14 00:14:45;;;;;;;24.42;14.57;;;8.50;83.60;;;;;;6157238;22;89144;-66
2022/01/14 00:17:12;;;;;;;23.27;14.23;;;8.50;83.10;;;;;;6130635;22;90485;-66
2022/01/14 00:19:40;;;;;;;29.50;15.90;;;8.60;82.90;;;;;;6157807;22;88367;-66
2022/01/14 00:22:13;;;;;;;30.00;15.55;;;8.60;82.90;;;;;;6157696;22;88635;-66
2022/01/14 00:33:16;;;;;;;27.48;15.23;;;8.50;83.00;;;;;;6130160;22;90772;-66
2022/01/14 00:35:43;;;;;;;22.02;14.15;;;8.60;83.00;;;;;;6131218;22;90572;-66
2022/01/14 00:38:12;;;;;;;25.95;14.63;;;8.50;82.50;;;;;;6157595;22;89537;-66
2022/01/14 00:40:40;;;;;;;26.40;14.55;;;8.60;82.60;;;;;;6157722;22;88443;-66
2022/01/14 00:43:07;;;;;;;30.30;16.50;;;8.50;82.80;;;;;;6157333;22;89058;-66
2022/01/14 00:45:34;;;;;;;28.77;16.20;;;8.60;82.60;;;;;;6130859;22;90330;-71
2022/01/14 00:48:02;;;;;;;25.30;14.85;;;8.60;82.90;;;;;;6157504;22;88394;-71
2022/01/14 00:50:29;;;;;;;22.33;14.48;;;8.60;82.90;;;;;;6157450;22;88438;-71
2022/01/14 00:52:56;;;;;;;26.95;16.08;;;8.50;82.80;;;;;;6157425;22;88493;-71
2022/01/14 00:55:28;;;;;;;24.88;14.95;;;8.50;82.60;;;;;;6157527;22;89218;-71
2022/01/14 01:00:31;;;;;;;30.65;14.75;;;8.50;82.80;;;;;;6157759;22;88806;-71
2022/01/14 01:02:59;;;;;;;23.35;13.90;;;8.60;82.80;;;;;;6157265;22;88517;-72
2022/01/14 01:05:26;;;;;;;28.75;13.85;;;8.50;82.50;;;;;;6157498;22;89217;-71
2022/01/14 01:08:08;;;;;;;27.10;15.23;;;8.60;82.20;;;;;;6130863;22;90570;-66
2022/01/14 01:10:45;;;;;;;27.30;14.75;;;8.50;82.50;;;;;;6157478;22;88428;-66
2022/01/14 01:13:21;;;;;;;23.75;14.70;;;8.50;82.20;;;;;;6156972;22;88442;-65
2022/01/14 01:15:49;;;;;;;24.77;14.40;;;8.50;82.20;;;;;;6157438;22;89419;-65
2022/01/14 01:18:18;;;;;;;25.10;15.13;;;8.50;82.20;;;;;;6157382;22;91333;-65
2022/01/14 01:20:46;;;;;;;27.83;15.73;;;8.50;82.20;;;;;;6157448;22;88586;-65
2022/01/14 01:23:13;;;;;;;25.75;13.70;;;8.50;82.10;;;;;;6156507;22;103332;-65
2022/01/14 01:26:00;;;;;;;24.45;13.75;;;8.50;82.10;;;;;;6130381;22;91167;-65
2022/01/14 01:28:28;;;;;;;25.45;13.60;;;8.50;82.30;;;;;;6157400;22;88538;-65
2022/01/14 01:33:21;;;;;;;21.45;13.27;;;8.50;82.10;;;;;;6157455;22;88518;-65
2022/01/14 01:35:48;;;;;;;24.30;14.27;;;8.50;82.20;;;;;;6131009;22;89189;-71
2022/01/14 01:38:17;;;;;;;23.45;13.52;;;8.50;81.80;;;;;;6157051;22;88805;-72
2022/01/14 01:40:47;;;;;;;26.58;13.55;;;8.50;82.10;;;;;;6157408;22;88399;-70
2022/01/14 01:43:16;;;;;;;18.27;11.68;;;8.50;82.00;;;;;;6156954;22;89136;-71
2022/01/14 01:45:47;;;;;;;19.27;11.40;;;8.50;82.10;;;;;;6157334;22;89190;-71
2022/01/14 01:48:14;;;;;;;25.13;12.75;;;8.40;82.00;;;;;;6157047;22;88671;-71
2022/01/14 01:50:41;;;;;;;24.25;12.95;;;8.40;81.70;;;;;;6130329;22;93416;-71
2022/01/14 01:53:08;;;;;;;28.52;13.18;;;8.50;81.50;;;;;;6157062;22;88538;-72
2022/01/14 01:55:35;;;;;;;27.38;13.68;;;8.50;81.90;;;;;;6157353;22;89368;-71
2022/01/14 01:58:03;;;;;;;21.52;12.93;;;8.40;81.50;;;;;;6156954;22;88374;-71
2022/01/14 02:00:30;;;;;;;23.95;13.48;;;8.40;81.70;;;;;;6130588;22;89161;-71
2022/01/14 02:02:59;;;;;;;25.30;13.48;;;8.40;81.60;;;;;;6157275;22;88454;-71
2022/01/14 02:05:26;;;;;;;23.45;12.90;;;8.40;81.60;;;;;;6130874;22;89022;-71
2022/01/14 02:07:53;;;;;;;24.85;14.07;;;8.30;81.90;;;;;;6157108;22;88628;-71
2022/01/14 02:10:22;;;;;;;19.70;13.63;;;8.30;82.00;;;;;;6156992;22;88369;-71
2022/01/14 02:12:52;;;;;;;25.40;14.30;;;8.30;81.50;;;;;;6156576;22;88538;-70
2022/01/14 02:23:25;;;;;;;20.15;12.75;;;8.40;81.50;;;;;;6156908;22;88710;-71
2022/01/14 02:25:52;;;;;;;24.80;13.63;;;8.40;81.60;;;;;;6156233;22;106300;-71
2022/01/14 02:28:20;;;;;;;22.60;14.20;;;8.30;81.80;;;;;;6156433;22;88724;-71
2022/01/14 02:30:49;;;;;;;24.75;13.88;;;8.30;81.90;;;;;;6156595;22;88402;-71
2022/01/14 02:33:18;;;;;;;28.48;14.38;;;8.30;82.00;;;;;;6129194;22;90372;-70
2022/01/14 02:35:47;;;;;;;24.25;14.95;;;8.30;82.20;;;;;;6156601;22;90128;-71
2022/01/14 02:38:15;;;;;;;27.20;15.90;;;8.40;82.60;;;;;;6156253;22;88627;-71
2022/01/14 02:40:44;;;;;;;26.55;14.95;;;8.40;82.30;;;;;;6156609;22;88497;-71
2022/01/14 02:43:14;;;;;;;30.55;16.65;;;8.40;82.40;;;;;;6156304;22;88786;-71
2022/01/14 02:45:42;;;;;;;25.27;15.50;;;8.40;82.20;;;;;;6130131;22;90308;-71
2022/01/14 02:48:09;;;;;;;27.38;15.63;;;8.40;82.50;;;;;;6129211;22;90020;-71
2022/01/14 02:50:43;;;;;;;28.48;15.88;;;8.40;82.30;;;;;;6156660;22;90254;-72
2022/01/14 02:53:41;;;;;;;27.08;15.13;;;8.40;82.30;;;;;;6156261;22;88746;-72
2022/01/14 02:56:02;;;;;;;25.58;15.63;;;8.40;82.00;;;;;;6128658;22;90332;-71
2022/01/14 02:58:33;;;;;;;24.52;14.80;;;8.40;82.00;;;;;;6157289;22;88755;-71
2022/01/14 03:01:07;;;;;;;20.30;14.60;;;8.40;81.90;;;;;;6157803;22;90838;-71
2022/01/14 03:03:34;;;;;;;26.70;14.13;;;8.50;82.10;;;;;;6158006;22;88729;-70
2022/01/14 03:06:03;;;;;;;21.25;13.93;;;8.40;81.90;;;;;;6131257;22;92049;-72
2022/01/14 03:08:32;;;;;;;25.10;13.55;;;8.50;81.90;;;;;;6157575;22;88791;-65
2022/01/14 03:11:06;;;;;;;23.73;13.63;;;8.40;81.80;;;;;;6157482;22;92508;-65
2022/01/14 03:13:34;;;;;;;24.98;14.45;;;8.50;81.60;;;;;;6131137;22;88461;-65
2022/01/14 03:16:02;;;;;;;22.95;14.02;;;8.50;81.70;;;;;;6131109;22;100341;-65
2022/01/14 03:18:45;;;;;;;24.92;14.15;;;8.50;81.60;;;;;;6130549;22;89862;-65
2022/01/14 03:21:15;;;;;;;27.15;13.73;;;8.50;82.10;;;;;;6130896;22;88440;-71
2022/01/14 03:23:49;;;;;;;24.02;14.40;;;8.50;81.80;;;;;;6157869;22;89198;-71
2022/01/14 03:26:18;;;;;;;;;;;8.50;81.60;;;;;;6158231;22;88424;-70
2022/01/14 03:28:46;;;;;;;27.02;15.48;;;8.40;81.80;;;;;;6133093;22;89923;-71
2022/01/14 03:31:13;;;;;;;27.30;16.08;;;8.50;81.90;;;;;;6157506;22;88492;-71
2022/01/14 03:33:40;;;;;;;26.52;14.88;;;8.50;81.80;;;;;;6131151;22;88643;-71
2022/01/14 03:36:08;;;;;;;27.40;15.30;;;8.50;81.70;;;;;;6157559;22;88414;-71
2022/01/14 03:38:35;;;;;;;22.88;15.52;;;8.50;81.50;;;;;;6130687;22;90029;-71
2022/01/14 03:41:02;;;;;;;24.55;15.45;;;8.50;81.60;;;;;;6157848;22;88406;-71
2022/01/14 03:43:31;;;;;;;26.85;15.02;;;8.50;81.50;;;;;;6131080;22;93059;-71
2022/01/14 03:45:58;;;;;;;27.33;16.15;;;8.60;81.70;;;;;;6130600;22;89313;-71
2022/01/14 03:48:25;;;;;;;27.55;15.63;;;8.50;81.80;;;;;;6130818;22;88793;-71
2022/01/14 03:50:52;;;;;;;29.60;17.05;;;8.50;82.00;;;;;;6157498;22;88459;-71
2022/01/14 03:53:20;;;;;;;30.92;16.30;;;8.50;82.10;;;;;;6130903;22;90299;-71
2022/01/14 03:55:47;;;;;;;29.15;15.88;;;8.60;82.50;;;;;;6157556;22;89204;-72
2022/01/14 03:58:34;;;;;;;27.73;16.40;;;8.60;82.30;;;;;;6157252;22;88648;-71
2022/01/14 04:01:01;;;;;;;28.08;16.90;;;8.60;82.60;;;;;;6157459;22;88362;-71
2022/01/14 04:03:28;;;;;;;29.35;17.42;;;8.60;82.40;;;;;;6157352;22;88652;-71
2022/01/14 04:05:55;;;;;;;26.67;16.75;;;8.60;82.20;;;;;;6157292;22;89162;-71
2022/01/14 04:08:21;;;;;;;28.48;15.75;;;8.60;82.50;;;;;;6157145;22;88737;-72
2022/01/14 04:10:51;;;;;;;30.40;17.08;;;8.60;82.40;;;;;;6157393;22;88384;-71
2022/01/14 04:13:23;;;;;;;31.83;16.90;;;8.60;82.50;;;;;;6129479;22;92053;-65
2022/01/14 04:15:50;;;;;;;28.60;16.65;;;8.60;82.60;;;;;;6130758;22;90389;-65
2022/01/14 04:18:19;;;;;;;28.13;16.33;;;8.60;82.60;;;;;;6131131;22;88802;-65
2022/01/14 04:20:49;;;;;;;27.42;16.70;;;8.60;83.00;;;;;;6157515;22;88449;-65
2022/01/14 04:23:18;;;;;;;29.88;16.38;;;8.60;82.90;;;;;;6156739;22;104485;-65
2022/01/14 04:25:51;;;;;;;30.70;17.45;;;8.60;82.80;;;;;;6157227;22;93439;-65
2022/01/14 04:28:19;;;;;;;31.07;17.27;;;8.60;82.50;;;;;;6157478;22;89694;-65
2022/01/14 04:30:47;;;;;;;28.27;16.15;;;8.60;82.70;;;;;;6129936;22;106313;-65
2022/01/14 04:33:14;;;;;;;27.13;16.30;;;8.60;82.50;;;;;;6157315;22;88508;-65
2022/01/14 04:35:41;;;;;;;25.30;15.77;;;8.60;82.60;;;;;;6130225;22;93702;-65
2022/01/14 04:38:08;;;;;;;29.60;16.08;;;8.60;82.60;;;;;;6156974;22;89930;-65
2022/01/14 04:40:35;;;;;;;30.40;16.42;;;8.60;82.60;;;;;;6129949;22;98398;-65
2022/01/14 04:43:02;;;;;;;27.83;16.00;;;8.60;82.50;;;;;;6157263;22;89637;-65
2022/01/14 04:48:07;;;;;;;27.00;15.98;;;8.70;82.10;;;;;;6157428;22;88715;-66
2022/01/14 04:50:34;;;;;;;24.58;14.40;;;8.70;82.30;;;;;;6157030;22;88465;-65
2022/01/14 04:53:02;;;;;;;25.98;15.02;;;8.60;82.10;;;;;;6157382;22;88566;-65
2022/01/14 04:55:29;;;;;;;27.48;16.42;;;8.70;82.10;;;;;;6157042;22;92659;-65
2022/01/14 04:57:57;;;;;;;27.63;16.42;;;8.60;82.10;;;;;;6157525;22;88584;-65
2022/01/14 05:00:26;;;;;;;27.73;15.27;;;8.60;82.10;;;;;;6157362;22;89065;-65
2022/01/14 05:02:54;;;;;;;27.20;16.15;;;8.50;82.20;;;;;;6156994;22;89163;-65
2022/01/14 05:05:29;;;;;;;27.67;16.45;;;8.50;82.00;;;;;;6130445;22;90331;-65
2022/01/14 05:07:56;;;;;;;29.88;16.27;;;8.50;82.40;;;;;;6130718;22;89792;-65
2022/01/14 05:12:57;;;;;;;27.52;18.13;;;8.40;82.50;;;;;;6156355;22;88667;-66
2022/01/14 05:15:24;;;;;;;28.45;17.65;;;8.40;82.90;;;;;;6130108;22;90605;-71
2022/01/14 05:17:51;;;;;;;33.13;19.13;;;8.40;82.90;;;;;;6130531;22;88759;-71
2022/01/14 05:20:19;;;;;;;34.72;17.92;;;8.30;83.10;;;;;;6157149;22;88450;-71
2022/01/14 05:22:46;;;;;;;35.10;16.95;;;8.30;83.20;;;;;;6156883;22;88658;-71
2022/01/14 05:25:14;;;;;;;29.88;18.27;;;8.30;83.20;;;;;;6157226;22;88865;-71
2022/01/14 05:27:43;;;;;;;36.50;19.77;;;8.30;83.70;;;;;;6129584;22;90413;-71
2022/01/14 05:30:12;;;;;;;31.73;19.08;;;8.30;83.60;;;;;;6157222;22;88443;-71
2022/01/14 05:32:47;;;;;;;34.65;19.48;;;8.30;83.40;;;;;;6156438;22;88797;-71
2022/01/14 05:35:20;;;;;;;34.60;18.33;;;8.40;84.00;;;;;;6157175;22;89114;-71
2022/01/14 05:37:47;;;;;;;38.90;20.52;;;8.30;83.60;;;;;;6156896;22;88783;-71
2022/01/14 05:40:17;;;;;;;35.75;20.33;;;8.30;83.50;;;;;;6157127;22;88407;-71
2022/01/14 05:42:44;;;;;;;31.45;19.35;;;8.30;83.60;;;;;;6156459;22;95667;-71
2022/01/14 05:45:13;;;;;;;35.88;18.88;;;8.30;83.30;;;;;;6157252;22;89137;-71
2022/01/14 05:47:58;;;;;;;37.75;19.80;;;8.30;83.20;;;;;;6129737;22;106687;-71
2022/01/14 05:50:26;;;;;;;34.53;19.08;;;8.40;83.40;;;;;;6130542;22;89426;-71
2022/01/14 05:52:53;;;;;;;35.13;20.45;;;8.30;83.30;;;;;;6156265;22;89364;-71
2022/01/14 05:55:21;;;;;;;37.15;20.55;;;8.30;83.50;;;;;;6130603;22;89129;-71
2022/01/14 05:57:49;;;;;;;36.75;18.95;;;8.30;83.10;;;;;;6156017;22;102246;-71
2022/01/14 06:00:20;;;;;;;34.22;20.63;;;8.30;83.20;;;;;;6130331;22;89315;-71
2022/01/14 06:02:50;;;;;;;38.75;20.17;;;8.40;83.20;;;;;;6156511;22;88748;-71
2022/01/14 06:05:18;;;;;;;32.00;18.58;;;8.30;83.10;;;;;;6156490;22;89119;-71
2022/01/14 06:07:46;;;;;;;32.03;18.05;;;8.40;83.40;;;;;;6156352;22;93264;-71
2022/01/14 06:10:13;;;;;;;33.17;19.83;;;8.40;83.60;;;;;;6156769;22;88476;-71
2022/01/14 06:12:40;;;;;;;35.83;19.27;;;8.40;84.00;;;;;;6130164;22;88706;-71
2022/01/14 06:15:07;;;;;;;31.80;19.50;;;8.40;83.70;;;;;;6156491;22;89056;-71
2022/01/14 06:17:34;;;;;;;33.35;19.10;;;8.40;83.10;;;;;;6156495;22;88758;-65
2022/01/14 06:20:03;;;;;;;33.35;18.52;;;8.40;82.80;;;;;;6156732;22;88352;-65
2022/01/14 06:22:30;;;;;;;29.13;18.85;;;8.40;82.60;;;;;;6130598;22;88986;-65
2022/01/14 06:24:58;;;;;;;33.30;18.02;;;8.40;82.40;;;;;;6156114;22;104582;-65
2022/01/14 06:27:25;;;;;;;26.88;18.08;;;8.40;82.70;;;;;;6156685;22;88382;-65
2022/01/14 06:29:52;;;;;;;30.00;17.58;;;8.40;82.50;;;;;;6114650;22;89010;-65
2022/01/14 06:32:19;;;;;;;27.88;17.50;;;8.40;82.60;;;;;;6066746;23;89661;-64
2022/01/14 06:34:46;;;;;;;27.58;16.50;;;8.50;82.40;;;;;;6068415;23;89202;-65
2022/01/14 06:37:15;;;;;;;32.67;17.65;;;8.50;82.10;;;;;;6091346;23;88756;-65
2022/01/14 06:39:43;;;;;;;28.35;16.67;;;8.50;82.40;;;;;;6068528;23;88400;-65
2022/01/14 06:42:10;;;;;;;30.33;17.88;;;8.50;82.10;;;;;;6068214;23;89504;-65
2022/01/14 06:44:37;;;;;;;31.17;18.42;;;8.50;81.80;;;;;;6068719;23;89922;-65
2022/01/14 06:47:04;;;;;;;28.17;17.27;;;8.50;81.80;;;;;;6066077;23;104490;-65
2022/01/14 06:49:31;;;;;;;30.73;17.30;;;8.50;82.00;;;;;;6067045;23;90230;-66
2022/01/14 06:51:58;;;;;;;30.75;19.27;;;8.50;81.70;;;;;;6068288;23;88728;-65
2022/01/14 06:54:25;;;;;;;34.95;17.45;;;8.50;81.80;;;;;;6068586;23;91063;-65
2022/01/14 06:56:52;;;;;;;29.25;18.60;;;8.50;81.70;;;;;;6068301;23;88644;-65
2022/01/14 06:59:19;;;;;;;30.13;18.08;;;8.50;81.50;;;;;;6067120;23;89161;-65
2022/01/14 07:01:46;;;;;;;28.48;17.30;;;8.50;81.50;;;;;;6068294;23;88628;-65
2022/01/14 07:04:13;;;;;;;27.13;16.70;;;8.50;81.80;;;;;;6068695;23;91705;-65
2022/01/14 07:06:40;;;;;;;34.15;18.90;;;8.50;81.50;;;;;;6068237;23;88732;-65
2022/01/14 07:09:07;;;;;;;30.45;17.33;;;8.50;81.70;;;;;;6068364;23;88486;-65
2022/01/14 07:11:36;;;;;;;31.27;16.70;;;8.50;81.90;;;;;;6068885;23;88586;-65
2022/01/14 07:14:05;;;;;;;25.67;16.00;;;8.50;81.80;;;;;;6080243;23;96674;-65
2022/01/14 07:16:33;;;;;;;30.73;16.42;;;8.50;81.90;;;;;;6071524;23;89887;-65
2022/01/14 07:19:01;;;;;;;26.23;17.02;;;8.50;81.90;;;;;;6097637;23;88375;-66
2022/01/14 07:21:28;;;;;;;30.38;15.82;;;8.50;81.80;;;;;;6097953;23;89004;-66
2022/01/14 07:23:55;;;;;;;30.80;15.93;;;8.50;81.70;;;;;;6097766;23;89092;-66
2022/01/14 07:26:22;;;;;;;27.20;16.48;;;8.50;81.70;;;;;;6097526;23;89138;-67
2022/01/14 07:28:49;;;;;;;30.08;15.13;;;8.50;81.70;;;;;;6097386;23;88447;-66
2022/01/14 07:31:16;;;;;;;24.05;15.30;;;8.50;81.80;;;;;;6071298;23;90469;-66
2022/01/14 07:33:43;;;;;;;29.30;15.40;;;8.50;81.90;;;;;;6097912;23;88910;-67
2022/01/14 07:36:10;;;;;;;27.90;15.45;;;8.50;81.80;;;;;;6097691;23;88716;-66
2022/01/14 07:38:37;;;;;;;27.77;16.15;;;8.60;81.50;;;;;;6097966;23;88413;-66
2022/01/14 07:41:04;;;;;;;25.50;15.48;;;8.60;81.80;;;;;;6097399;23;88522;-66
2022/01/14 07:43:31;;;;;;;27.33;15.60;;;8.60;81.60;;;;;;6097593;23;89155;-65
2022/01/14 07:45:58;;;;;;;29.10;14.60;;;8.60;81.60;;;;;;6071226;23;88833;-67
2022/01/14 07:48:25;;;;;;;22.23;14.95;;;8.60;81.50;;;;;;6098236;23;88423;-67
2022/01/14 07:50:52;;;;;;;27.75;15.00;;;8.60;81.60;;;;;;6071151;23;89644;-67
2022/01/14 07:53:19;;;;;;;22.48;14.20;;;8.60;81.50;;;;;;6071699;23;89074;-67
2022/01/14 07:55:47;;;;;;;25.42;14.00;;;8.60;81.60;;;;;;6097617;23;89297;-73
2022/01/14 07:58:14;;;;;;;19.83;13.60;;;8.60;81.70;;;;;;6071321;23;89400;-72
2022/01/14 08:00:41;;;;;;;30.70;15.00;;;8.60;81.50;;;;;;6097763;23;89634;-72
2022/01/14 08:03:08;;;;;;;19.35;13.07;;;8.60;81.50;;;;;;6097454;23;89125;-72
2022/01/14 08:05:35;;;;;;;23.63;13.55;;;8.60;81.80;;;;;;6097982;23;88709;-72
2022/01/14 08:08:04;;;;;;;27.65;14.45;;;8.60;81.50;;;;;;6097594;23;88911;-71
2022/01/14 08:10:32;;;;;;;24.10;13.25;;;8.70;81.50;;;;;;6071197;23;89720;-71
2022/01/14 08:12:58;;;;;;;25.38;13.18;;;8.70;81.40;;;;;;6097549;23;89136;-72
2022/01/14 08:15:30;;;;;;;23.90;13.30;;;8.70;81.20;;;;;;6097844;23;88759;-71
2022/01/14 08:18:00;;;;;;;24.55;13.55;;;8.70;81.10;;;;;;6097133;23;89360;-71
2022/01/14 08:20:27;;;;;;;22.17;13.88;;;8.70;81.10;;;;;;6097362;23;89413;-71
2022/01/14 08:22:54;;;;;;;26.88;13.02;;;8.70;81.20;;;;;;6071751;23;88611;-72
2022/01/14 08:25:21;;;;;;;23.10;12.88;;;8.80;81.00;;;;;;6097737;23;88717;-71
2022/01/14 08:27:48;;;;;;;23.42;12.43;;;8.80;81.30;;;;;;6096911;23;103665;-71
2022/01/14 08:30:15;;;;;;;23.65;14.05;;;8.70;81.10;;;;;;6097486;23;88775;-71
2022/01/14 08:32:42;;;;;;;21.48;12.35;;;8.80;81.10;;;;;;6095921;23;89250;-71
2022/01/14 08:35:09;;;;;;;20.25;12.52;;;8.80;81.10;;;;;;6097316;23;88758;-72
2022/01/14 08:37:38;;;;;;;20.88;13.32;;;8.80;80.80;;;;;;6098060;23;88409;-73
2022/01/14 08:40:07;;;;;;;26.90;14.85;;;8.80;81.00;;;;;;6097175;23;88580;-66
2022/01/14 08:42:35;;;;;;;22.42;12.45;;;8.90;81.30;;;;;;6097556;23;89084;-66
2022/01/14 08:45:03;;;;;;;25.23;12.27;;;8.90;80.70;;;;;;6095881;23;88625;-66
2022/01/14 08:47:31;;;;;;;23.42;12.32;;;9.00;80.60;;;;;;6071137;23;89373;-67
2022/01/14 08:49:58;;;;;;;23.40;12.30;;;9.00;81.10;;;;;;6097797;23;88484;-66
2022/01/14 08:52:25;;;;;;;21.05;11.82;;;9.00;81.00;;;;;;6096366;23;89090;-66
2022/01/14 08:54:52;;;;;;;19.58;11.10;;;9.10;80.70;;;;;;6070448;23;91396;-66
2022/01/14 08:57:23;;;;;;;20.52;11.27;;;9.10;80.40;;;;;;6071223;23;89560;-66
2022/01/14 08:59:50;;;;;;;20.20;12.68;;;9.20;80.70;;;;;;6097191;23;88676;-67
2022/01/14 09:02:17;;;;;;;23.73;12.13;;;9.20;80.30;;;;;;6097300;23;89215;-66
2022/01/14 09:04:44;;;;;;;22.75;11.77;;;9.20;79.80;;;;;;6096728;23;100170;-66
2022/01/14 09:07:11;;;;;;;16.88;11.15;;;9.30;80.00;;;;;;6097158;23;88680;-66
2022/01/14 09:09:38;;;;;;;25.02;10.55;;;9.30;80.00;;;;;;6096917;23;89386;-67
2022/01/14 09:12:06;;;;;;;22.70;10.73;;;9.30;80.00;;;;;;6096971;23;89129;-66
2022/01/14 09:14:33;;;;;;;16.48;10.30;;;9.30;79.80;;;;;;6070984;23;89891;-66
2022/01/14 09:17:00;;;;;;;21.02;10.30;;;9.40;79.70;;;;;;6097418;23;88357;-66
2022/01/14 09:19:27;;;;;;;16.20;10.60;;;9.40;79.60;;;;;;6097051;23;88542;-66
2022/01/14 09:21:54;;;;;;;19.20;9.90;;;9.50;79.40;;;;;;6097242;23;89492;-66
2022/01/14 09:24:42;;;;;;;22.98;11.77;;;9.50;79.40;;;;;;6076576;23;88801;-66
2022/01/14 09:27:10;;;;;;;21.90;11.73;;;9.60;79.40;;;;;;6097257;23;88452;-71
2022/01/14 09:29:37;;;;;;;18.98;11.93;;;9.60;79.10;;;;;;6097031;23;89780;-71
2022/01/14 09:32:05;;;;;;;20.05;10.60;;;9.60;78.90;;;;;;6097100;23;89038;-73
2022/01/14 09:34:37;;;;;;;19.58;10.85;;;9.70;79.00;;;;;;6096867;23;88771;-71
2022/01/14 09:37:04;;;;;;;18.85;9.77;;;9.80;78.70;;;;;;6097492;23;90314;-71
2022/01/14 09:39:32;;;;;;;15.27;9.80;;;9.80;78.60;;;;;;6097548;23;95951;-71
2022/01/14 09:42:00;;;;;;;16.35;10.25;;;9.80;78.40;;;;;;6098182;23;88435;-72
2022/01/14 09:44:27;;;;;;;16.45;9.45;;;9.80;78.60;;;;;;6096758;23;88385;-71
2022/01/14 09:46:54;;;;;;;19.33;10.82;;;9.80;78.30;;;;;;6097985;23;88174;-72
2022/01/14 09:49:22;;;;;;;14.65;8.90;;;9.90;78.40;;;;;;6095589;23;88636;-72
2022/01/14 09:51:49;;;;;;;17.58;8.90;;;9.90;78.20;;;;;;6072031;23;89808;-72
2022/01/14 09:54:16;;;;;;;18.40;9.20;;;9.90;78.30;;;;;;6071537;23;88470;-71
2022/01/14 09:56:45;;;;;;;17.63;9.75;;;10.00;78.10;;;;;;6098019;23;88060;-71
2022/01/14 09:59:12;;;;;;;14.02;9.60;;;10.10;78.00;;;;;;6070697;23;89461;-73
2022/01/14 10:01:42;;;;;;;20.17;10.07;;;10.10;77.80;;;;;;6072128;23;90937;-72
2022/01/14 10:04:20;;;;;;;16.30;7.53;;;10.10;77.80;;;;;;6097336;23;88667;-72
2022/01/14 10:06:53;;;;;;;15.98;8.07;;;10.20;77.50;;;;;;6096568;23;88140;-73
2022/01/14 10:09:25;;;;;;;13.35;8.40;;;10.30;77.70;;;;;;6096854;23;88536;-72
2022/01/14 10:12:06;;;;;;;15.18;8.55;;;10.30;77.20;;;;;;6071356;23;88585;-73
2022/01/14 10:14:40;;;;;;;17.20;8.45;;;10.40;77.10;;;;;;6095902;23;88431;-72
2022/01/14 10:17:09;;;;;;;10.88;6.47;;;10.40;77.10;;;;;;6096452;23;88103;-73
2022/01/14 10:19:42;;;;;;;12.40;6.65;;;10.40;76.80;;;;;;6097382;23;88663;-74
2022/01/14 10:22:18;;;;;;;17.95;7.40;;;10.50;76.80;;;;;;6098038;23;88902;-74
2022/01/14 10:24:54;;;;;;;11.45;6.63;;;10.60;76.60;;;;;;6071204;23;88802;-72
2022/01/14 10:27:34;;;;;;;9.20;6.28;;;10.60;76.40;;;;;;6097628;23;88428;-73
2022/01/14 10:30:20;;;;;;;11.70;5.85;;;10.60;76.10;;;;;;6071703;23;89615;-72
2022/01/14 10:33:05;;;;;;;13.88;6.10;;;10.60;75.60;;;;;;6097736;23;89481;-73
2022/01/14 10:35:45;;;;;;;12.13;5.70;;;10.60;76.00;;;;;;6070326;23;88067;-72
2022/01/14 10:38:17;;;;;;;15.55;6.88;;;10.50;76.60;;;;;;6098187;23;90347;-71
2022/01/14 10:40:53;;;;;;;10.95;5.43;;;10.60;76.30;;;;;;6097714;23;88861;-71
2022/01/14 10:43:22;;;;;;;13.35;6.32;;;10.60;76.20;;;;;;6097337;23;88455;-71
2022/01/14 10:45:54;;;;;;;14.25;6.35;;;10.50;75.30;;;;;;6097833;23;87902;-71
2022/01/14 10:48:32;;;;;;;16.95;6.43;;;10.50;75.90;;;;;;6097275;23;88933;-72
2022/01/14 10:51:02;;;;;;;9.88;5.60;;;10.50;75.90;;;;;;6097069;23;89207;-71
2022/01/14 10:53:44;;;;;;;14.02;6.13;;;10.50;76.10;;;;;;6097202;23;91886;-71
2022/01/14 10:56:17;;;;;;;13.80;6.13;;;10.40;76.20;;;;;;6097763;23;87873;-66
2022/01/14 10:58:47;;;;;;;13.32;5.97;;;10.40;76.50;;;;;;6097878;23;87980;-66
2022/01/14 11:01:20;;;;;;;15.95;5.40;;;10.40;76.50;;;;;;6097213;23;88567;-66
2022/01/14 11:04:01;;;;;;;15.85;6.60;;;10.40;76.60;;;;;;6097245;23;88342;-67
2022/01/14 11:06:30;;;;;;;14.55;7.00;;;10.40;76.50;;;;;;6070437;23;88067;-67
2022/01/14 11:08:58;;;;;;;12.70;6.40;;;10.40;76.70;;;;;;6097297;23;92257;-68
2022/01/14 11:11:26;;;;;;;12.25;5.30;;;10.30;76.60;;;;;;6097017;23;88597;-67
2022/01/14 11:13:53;;;;;;;16.92;5.90;;;10.30;77.50;;;;;;6096337;23;100313;-67
2022/01/14 11:16:21;;;;;;;9.55;5.03;;;10.20;77.20;;;;;;6096799;23;91303;-67
2022/01/14 11:18:49;;;;;;;16.70;5.47;;;10.20;77.60;;;;;;6073113;23;88197;-67
2022/01/14 11:24:04;;;;;;;13.07;5.20;;;10.20;77.60;;;;;;6098893;23;88665;-67
2022/01/14 11:26:39;;;;;;;11.05;5.15;;;10.20;77.60;;;;;;6098576;23;87883;-67
2022/01/14 11:33:44;;;;;;;12.35;4.80;;;10.40;77.70;;;;;;6098608;23;88266;-67
2022/01/14 11:36:15;;;;;;;13.63;5.10;;;10.50;77.30;;;;;;6073847;23;89642;-67
2022/01/14 11:38:44;;;;;;;15.77;4.60;;;10.50;77.10;;;;;;6072451;23;87905;-67
2022/01/14 11:41:16;;;;;;;8.35;4.43;;;10.60;77.00;;;;;;6097985;23;89710;-68
2022/01/14 11:43:50;;;;;;;11.20;4.63;;;10.60;76.90;;;;;;6098284;23;89204;-67
2022/01/14 11:46:32;;;;;;;;;;;10.60;76.80;;;;;;6099201;23;89192;-67
2022/01/14 11:49:00;;;;;;;12.55;5.15;;;10.60;76.50;;;;;;6099924;23;87939;-67
2022/01/14 11:51:27;;;;;;;7.78;4.20;;;10.60;76.80;;;;;;6098584;23;88211;-67
2022/01/14 11:54:04;;;;;;;11.82;5.85;;;10.70;76.90;;;;;;6098296;23;88445;-67
2022/01/14 11:56:35;;;;;;;9.18;4.45;;;10.70;76.60;;;;;;6072568;23;88401;-67
2022/01/14 11:59:17;;;;;;;16.23;4.97;;;10.70;76.50;;;;;;6098513;23;87956;-67
2022/01/14 12:01:46;;;;;;;17.55;5.65;;;10.90;76.40;;;;;;6097802;23;88014;-67
2022/01/14 12:04:13;;;;;;;10.60;5.05;;;10.90;76.20;;;;;;6098274;23;88348;-67
2022/01/14 12:06:57;;;;;;;12.68;5.22;;;10.90;76.10;;;;;;6098557;23;88406;-67
2022/01/14 12:09:25;;;;;;;11.15;4.40;;;10.90;76.10;;;;;;6097940;23;88635;-67
2022/01/14 12:12:24;;;;;;;13.80;4.47;;;10.80;76.00;;;;;;6072087;23;88377;-67
2022/01/14 12:14:59;;;;;;;8.93;4.72;;;10.90;75.90;;;;;;6098289;23;92578;-67
2022/01/14 12:17:37;;;;;;;10.75;3.78;;;10.90;76.10;;;;;;6098578;23;88817;-66
2022/01/14 12:20:16;;;;;;;13.18;3.80;;;10.90;76.20;;;;;;6098350;23;88011;-67
2022/01/14 12:23:07;;;;;;;9.10;3.88;;;10.90;76.10;;;;;;6098681;23;87990;-67
2022/01/14 12:25:41;;;;;;;7.00;3.70;;;10.90;76.20;;;;;;6096889;23;89794;-66
2022/01/14 12:28:25;;;;;;;10.07;3.70;;;10.90;76.10;;;;;;6072437;23;89536;-66
2022/01/14 12:31:03;;;;;;;10.95;4.03;;;10.90;75.90;;;;;;6098528;23;91240;-67
2022/01/14 12:33:50;;;;;;;8.82;3.65;;;10.70;76.30;;;;;;6096616;23;89492;-66
2022/01/14 12:36:22;;;;;;;13.50;3.88;;;10.80;76.70;;;;;;6097739;23;88715;-65
2022/01/14 12:38:51;;;;;;;11.13;4.07;;;10.70;76.80;;;;;;6096977;23;89226;-65
2022/01/14 12:41:21;;;;;;;10.05;3.80;;;10.60;77.00;;;;;;6098330;23;88448;-68
2022/01/14 12:43:54;;;;;;;13.45;4.47;;;10.70;77.10;;;;;;6071851;23;90345;-66
2022/01/14 12:46:41;;;;;;;9.30;3.80;;;10.70;77.10;;;;;;6098228;23;89795;-66
2022/01/14 12:49:25;;;;;;;11.93;5.15;;;10.80;76.80;;;;;;6072043;23;89381;-66
2022/01/14 12:52:10;;;;;;;11.63;4.07;;;10.70;76.70;;;;;;6098652;23;87887;-66
2022/01/14 12:54:40;;;;;;;12.65;4.20;;;10.80;76.80;;;;;;6099081;23;89625;-66
2022/01/14 12:57:07;;;;;;;9.30;3.75;;;10.70;77.80;;;;;;6098390;23;88466;-66
2022/01/14 12:59:42;;;;;;;10.35;3.55;;;10.70;76.80;;;;;;6098332;23;88360;-66
2022/01/14 13:02:25;;;;;;;10.10;3.90;;;10.80;76.90;;;;;;6098088;23;89040;-66
2022/01/14 13:05:07;;;;;;;9.88;3.80;;;10.70;77.10;;;;;;6072677;23;88320;-66
2022/01/14 13:07:35;;;;;;;14.57;4.70;;;10.70;77.20;;;;;;6098412;23;88690;-66
2022/01/14 13:10:05;;;;;;;13.77;4.32;;;10.60;77.20;;;;;;6098304;23;88345;-65
2022/01/14 13:12:38;;;;;;;10.30;4.43;;;10.60;77.20;;;;;;6098218;23;88370;-66
2022/01/14 13:15:10;;;;;;;10.45;4.05;;;10.60;77.40;;;;;;6096364;23;88137;-66
2022/01/14 13:17:42;;;;;;;12.55;4.38;;;10.50;77.60;;;;;;6072464;23;88784;-66
2022/01/14 13:20:12;;;;;;;12.85;4.75;;;10.40;78.10;;;;;;6097307;23;89729;-67
2022/01/14 13:22:42;;;;;;;15.00;4.07;;;10.30;78.20;;;;;;6071814;23;88041;-66
2022/01/14 13:25:14;;;;;;;20.98;5.45;;;10.30;79.10;;;;;;6098516;23;88297;-65
2022/01/14 13:27:45;;;;;;;11.73;4.97;;;10.30;78.90;;;;;;6097772;23;89506;-67